Time;durP1;ratioP1;P1;durP2;ratioP2;P2;SDS_P1;SDS_P2;PMS_P1;PMS_P2;Temp;Humidity;BMP_temperature;BMP_pressure;BME280_temperature;BME280_humidity;BME280_pressure;Samples;Min_cycle;Max_cycle;Signal;HPM_P1;HPM_P2
2023/06/13 00:00:24;;;;;;;7.38;5.18;;;;;;;;;;5064365;28;20428;-64
2023/06/13 00:02:51;;;;;;;7.70;4.88;;;;;;;;;;5062745;28;20457;-64
2023/06/13 00:05:21;;;;;;;6.53;4.80;;;;;;;;;;5064763;28;20874;-64
2023/06/13 00:07:49;;;;;;;6.82;5.03;;;;;;;;;;5067041;28;20920;-64
2023/06/13 00:10:16;;;;;;;9.48;5.47;;;;;;;;;;5054013;28;20409;-64
2023/06/13 00:12:44;;;;;;;8.25;4.70;;;;;;;;;;5054010;28;20475;-64
2023/06/13 00:15:11;;;;;;;7.80;4.85;;;;;;;;;;5061131;28;20463;-64
2023/06/13 00:17:38;;;;;;;7.72;5.40;;;;;;;;;;5063934;28;20424;-64
2023/06/13 00:20:06;;;;;;;6.93;4.72;;;;;;;;;;5064636;28;20890;-64
2023/06/13 00:22:33;;;;;;;7.60;5.63;;;;;;;;;;5063437;28;20444;-64
2023/06/13 00:25:02;;;;;;;9.60;5.50;;;;;;;;;;5062665;28;20817;-64
2023/06/13 00:27:29;;;;;;;6.60;5.28;;;;;;;;;;5053752;28;20417;-64
2023/06/13 00:29:56;;;;;;;7.43;5.23;;;;;;;;;;5053759;28;20445;-64
2023/06/13 00:32:23;;;;;;;7.45;5.22;;;;;;;;;;5063827;28;20470;-64
2023/06/13 00:34:49;;;;;;;7.13;4.95;;;;;;;;;;5063418;28;20411;-64
2023/06/13 00:37:16;;;;;;;10.33;5.17;;;;;;;;;;5067637;28;20788;-64
2023/06/13 00:39:43;;;;;;;8.68;4.95;;;;;;;;;;5064391;28;20423;-64
2023/06/13 00:42:12;;;;;;;6.95;5.40;;;;;;;;;;5064279;28;20475;-64
2023/06/13 00:44:39;;;;;;;6.10;4.63;;;;;;;;;;5066258;28;20983;-64
2023/06/13 00:47:06;;;;;;;7.63;4.68;;;;;;;;;;5063380;28;20489;-64
2023/06/13 00:49:34;;;;;;;8.18;5.00;;;;;;;;;;5061764;28;20417;-64
2023/06/13 00:52:04;;;;;;;6.57;5.35;;;;;;;;;;5063465;28;20417;-64
2023/06/13 00:54:31;;;;;;;6.07;4.80;;;;;;;;;;5064696;28;20408;-64
2023/06/13 00:56:58;;;;;;;6.75;5.18;;;;;;;;;;5064488;28;20810;-64
2023/06/13 00:59:26;;;;;;;6.43;5.27;;;;;;;;;;5064905;28;20558;-64
2023/06/13 01:01:53;;;;;;;6.75;4.90;;;;;;;;;;5064132;28;20420;-64
2023/06/13 01:04:20;;;;;;;10.90;5.07;;;;;;;;;;5062836;28;20427;-64
2023/06/13 01:06:49;;;;;;;6.47;4.80;;;;;;;;;;5063159;28;20417;-64
2023/06/13 01:09:17;;;;;;;9.07;5.17;;;;;;;;;;5068058;28;20510;-64
2023/06/13 01:11:49;;;;;;;8.80;5.20;;;;;;;;;;5061418;28;20417;-64
2023/06/13 01:14:20;;;;;;;6.70;5.43;;;;;;;;;;5064716;28;20473;-64
2023/06/13 01:16:54;;;;;;;8.15;5.43;;;;;;;;;;5064814;28;20419;-64
2023/06/13 01:19:25;;;;;;;8.75;5.40;;;;;;;;;;5063590;28;20451;-64
2023/06/13 01:21:56;;;;;;;7.68;5.43;;;;;;;;;;5063704;28;20445;-64
2023/06/13 01:24:28;;;;;;;6.63;5.25;;;;;;;;;;5064099;28;20518;-63
2023/06/13 01:26:57;;;;;;;5.65;4.82;;;;;;;;;;5052486;28;20409;-64
2023/06/13 01:29:25;;;;;;;6.75;5.40;;;;;;;;;;5052256;28;20875;-64
2023/06/13 01:31:53;;;;;;;8.82;5.63;;;;;;;;;;5062199;28;20423;-64
2023/06/13 01:34:20;;;;;;;7.97;5.28;;;;;;;;;;5064433;28;20485;-64
2023/06/13 01:36:47;;;;;;;6.97;5.53;;;;;;;;;;5060839;28;20411;-64
2023/06/13 01:39:14;;;;;;;8.63;5.45;;;;;;;;;;5066845;28;20415;-64
2023/06/13 01:41:41;;;;;;;7.30;5.35;;;;;;;;;;5060770;28;20409;-64
2023/06/13 01:44:13;;;;;;;9.57;5.75;;;;;;;;;;5064744;28;20427;-64
2023/06/13 01:46:46;;;;;;;6.43;5.60;;;;;;;;;;5060879;28;20495;-64
2023/06/13 01:49:18;;;;;;;7.07;5.45;;;;;;;;;;5061746;28;20413;-64
2023/06/13 01:51:48;;;;;;;7.60;5.50;;;;;;;;;;5062914;28;20552;-64
2023/06/13 01:54:18;;;;;;;6.20;5.05;;;;;;;;;;5063247;28;20407;-64
2023/06/13 01:56:47;;;;;;;6.65;5.28;;;;;;;;;;5061310;28;20475;-64
2023/06/13 01:59:17;;;;;;;8.85;5.70;;;;;;;;;;5067155;28;20415;-65
2023/06/13 02:01:45;;;;;;;7.47;5.60;;;;;;;;;;5061144;28;20405;-64
2023/06/13 02:04:12;;;;;;;6.32;5.57;;;;;;;;;;5061316;28;20425;-64
2023/06/13 02:06:39;;;;;;;7.45;5.68;;;;;;;;;;5066675;28;20473;-64
2023/06/13 02:09:06;;;;;;;8.50;5.57;;;;;;;;;;5065959;28;20911;-64
2023/06/13 02:11:33;;;;;;;7.35;5.60;;;;;;;;;;5062751;28;20423;-64
2023/06/13 02:14:00;;;;;;;8.05;5.53;;;;;;;;;;5060958;28;20490;-64
2023/06/13 02:16:30;;;;;;;6.83;5.40;;;;;;;;;;5063591;28;20462;-64
2023/06/13 02:18:59;;;;;;;7.97;5.65;;;;;;;;;;5051203;28;21037;-64
2023/06/13 02:21:26;;;;;;;7.85;5.82;;;;;;;;;;5051661;28;20462;-64
2023/06/13 02:23:53;;;;;;;8.02;5.82;;;;;;;;;;5051485;28;20558;-64
2023/06/13 02:26:23;;;;;;;10.45;5.97;;;;;;;;;;5051497;28;20420;-64
2023/06/13 02:28:50;;;;;;;8.38;5.75;;;;;;;;;;5051195;28;20475;-64
2023/06/13 02:31:17;;;;;;;8.85;5.90;;;;;;;;;;5063859;28;20512;-64
2023/06/13 02:33:45;;;;;;;7.55;5.57;;;;;;;;;;5059964;28;20462;-64
2023/06/13 02:36:13;;;;;;;7.95;5.60;;;;;;;;;;5063822;28;20464;-64
2023/06/13 02:38:40;;;;;;;7.32;5.72;;;;;;;;;;5061999;28;20417;-64
2023/06/13 02:41:07;;;;;;;7.72;5.97;;;;;;;;;;5060707;28;20925;-64
2023/06/13 02:43:34;;;;;;;10.68;5.53;;;;;;;;;;5061632;28;20494;-65
2023/06/13 02:46:01;;;;;;;9.13;5.55;;;;;;;;;;5062452;28;20905;-64
2023/06/13 02:48:28;;;;;;;9.63;5.65;;;;;;;;;;5060381;28;20409;-64
2023/06/13 02:50:57;;;;;;;9.70;5.90;;;;;;;;;;5060090;28;20959;-64
2023/06/13 02:53:24;;;;;;;8.02;5.90;;;;;;;;;;5061016;28;20515;-64
2023/06/13 02:55:52;;;;;;;7.70;5.47;;;;;;;;;;5060375;28;20408;-64
2023/06/13 02:58:20;;;;;;;8.10;5.53;;;;;;;;;;5062023;28;20458;-64
2023/06/13 03:00:47;;;;;;;9.02;5.40;;;;;;;;;;5060493;28;20450;-64
2023/06/13 03:03:16;;;;;;;7.93;5.55;;;;;;;;;;5062995;28;20423;-64
2023/06/13 03:05:44;;;;;;;10.40;5.90;;;;;;;;;;5060712;28;20501;-64
2023/06/13 03:08:13;;;;;;;7.60;5.53;;;;;;;;;;5063418;28;20423;-64
2023/06/13 03:10:40;;;;;;;7.20;5.33;;;;;;;;;;5062696;28;20546;-64
2023/06/13 03:13:07;;;;;;;7.75;5.45;;;;;;;;;;5059492;28;20450;-64
2023/06/13 03:15:34;;;;;;;9.07;5.40;;;;;;;;;;5050883;28;20524;-64
2023/06/13 03:18:01;;;;;;;8.48;5.70;;;;;;;;;;5050647;28;20825;-64
2023/06/13 03:20:30;;;;;;;9.02;6.25;;;;;;;;;;5058133;28;20425;-64
2023/06/13 03:22:57;;;;;;;8.18;5.80;;;;;;;;;;5062714;28;21089;-64
2023/06/13 03:25:25;;;;;;;6.55;5.47;;;;;;;;;;5063061;28;20423;-64
2023/06/13 03:27:52;;;;;;;10.05;5.88;;;;;;;;;;5059677;28;20413;-64
2023/06/13 03:30:19;;;;;;;9.20;5.97;;;;;;;;;;5063175;28;20469;-64
2023/06/13 03:32:46;;;;;;;9.52;5.78;;;;;;;;;;5061385;28;20961;-64
2023/06/13 03:35:13;;;;;;;7.40;5.60;;;;;;;;;;5060991;28;21294;-64
2023/06/13 03:37:40;;;;;;;7.95;5.78;;;;;;;;;;5063806;28;20419;-64
2023/06/13 03:40:08;;;;;;;8.43;5.67;;;;;;;;;;5062377;28;20417;-64
2023/06/13 03:42:36;;;;;;;6.97;5.90;;;;;;;;;;5059320;28;20533;-65
2023/06/13 03:45:03;;;;;;;11.80;5.45;;;;;;;;;;5059447;28;20520;-64
2023/06/13 03:47:30;;;;;;;7.05;5.35;;;;;;;;;;5062892;28;20423;-64
2023/06/13 03:49:57;;;;;;;7.93;5.72;;;;;;;;;;5058607;28;20412;-64
2023/06/13 03:52:24;;;;;;;7.63;6.03;;;;;;;;;;5060566;28;20819;-64
2023/06/13 03:54:52;;;;;;;7.68;5.50;;;;;;;;;;5061538;28;20469;-64
2023/06/13 03:57:19;;;;;;;8.32;5.85;;;;;;;;;;5061236;28;20422;-64
2023/06/13 03:59:47;;;;;;;7.85;5.78;;;;;;;;;;5060819;28;20420;-64
2023/06/13 04:02:14;;;;;;;7.72;5.50;;;;;;;;;;5061569;28;20455;-65
2023/06/13 04:04:44;;;;;;;7.00;5.53;;;;;;;;;;5067402;28;20480;-65
2023/06/13 04:07:11;;;;;;;7.30;5.82;;;;;;;;;;5068175;28;20582;-65
2023/06/13 04:09:38;;;;;;;8.18;5.35;;;;;;;;;;5061685;28;20416;-65
2023/06/13 04:12:06;;;;;;;8.45;5.80;;;;;;;;;;5061068;28;20411;-65
2023/06/13 04:14:33;;;;;;;9.50;5.70;;;;;;;;;;5059621;28;20500;-64
2023/06/13 04:17:02;;;;;;;7.32;5.50;;;;;;;;;;5059702;28;20842;-64
2023/06/13 04:19:31;;;;;;;9.55;5.95;;;;;;;;;;5057488;28;20448;-65
2023/06/13 04:21:59;;;;;;;7.50;5.80;;;;;;;;;;5060574;28;20545;-65
2023/06/13 04:24:26;;;;;;;7.97;5.53;;;;;;;;;;5058934;28;20462;-65
2023/06/13 04:26:54;;;;;;;7.80;5.82;;;;;;;;;;5059739;28;20483;-65
2023/06/13 04:29:25;;;;;;;7.70;5.78;;;;;;;;;;5061458;28;20803;-62
2023/06/13 04:31:53;;;;;;;8.60;5.40;;;;;;;;;;5063253;28;20496;-63
2023/06/13 04:34:23;;;;;;;7.78;5.38;;;;;;;;;;5058889;28;20413;-63
2023/06/13 04:36:55;;;;;;;7.13;5.55;;;;;;;;;;5064809;28;20427;-63
2023/06/13 04:39:24;;;;;;;8.25;5.60;;;;;;;;;;5064190;28;20418;-63
2023/06/13 04:41:55;;;;;;;6.68;5.20;;;;;;;;;;5063613;28;20448;-63
2023/06/13 04:44:25;;;;;;;6.13;5.33;;;;;;;;;;5068968;28;20524;-63
2023/06/13 04:46:52;;;;;;;8.67;5.33;;;;;;;;;;5065878;28;20419;-62
2023/06/13 04:49:19;;;;;;;8.88;5.82;;;;;;;;;;5064471;28;20424;-62
2023/06/13 04:51:48;;;;;;;8.38;5.40;;;;;;;;;;5063538;28;20417;-62
2023/06/13 04:54:15;;;;;;;10.50;5.70;;;;;;;;;;5062048;28;20580;-62
2023/06/13 04:56:43;;;;;;;9.40;6.03;;;;;;;;;;5065300;28;20420;-62
2023/06/13 04:59:10;;;;;;;7.05;5.72;;;;;;;;;;5063452;28;20786;-61
2023/06/13 05:01:38;;;;;;;9.52;5.35;;;;;;;;;;5062150;28;20486;-62
2023/06/13 05:04:05;;;;;;;7.07;5.28;;;;;;;;;;5065940;28;20455;-61
2023/06/13 05:06:34;;;;;;;7.05;5.22;;;;;;;;;;5067046;28;20914;-62
2023/06/13 05:09:02;;;;;;;7.68;5.15;;;;;;;;;;5063188;28;20503;-62
2023/06/13 05:11:30;;;;;;;7.33;5.23;;;;;;;;;;5064122;28;21150;-62
2023/06/13 05:13:57;;;;;;;8.00;5.55;;;;;;;;;;5062591;28;20421;-64
2023/06/13 05:16:26;;;;;;;10.00;5.47;;;;;;;;;;5061531;28;20462;-64
2023/06/13 05:18:57;;;;;;;9.45;5.55;;;;;;;;;;5064984;28;20416;-65
2023/06/13 05:21:24;;;;;;;9.15;5.45;;;;;;;;;;5061427;28;20417;-65
2023/06/13 05:23:51;;;;;;;8.65;5.65;;;;;;;;;;5065432;28;20415;-64
2023/06/13 05:26:20;;;;;;;9.18;5.28;;;;;;;;;;5062700;28;20917;-64
2023/06/13 05:28:47;;;;;;;8.63;5.85;;;;;;;;;;5063577;28;20416;-65
2023/06/13 05:31:14;;;;;;;6.72;5.38;;;;;;;;;;5065627;28;20423;-64
2023/06/13 05:33:41;;;;;;;7.33;5.03;;;;;;;;;;5064593;28;20412;-64
2023/06/13 05:36:08;;;;;;;8.95;5.53;;;;;;;;;;5064223;28;20814;-64
2023/06/13 05:38:36;;;;;;;8.88;5.15;;;;;;;;;;5064984;28;20462;-64
2023/06/13 05:41:03;;;;;;;8.30;5.22;;;;;;;;;;5061142;28;20435;-64
2023/06/13 05:43:32;;;;;;;6.10;5.18;;;;;;;;;;5065035;28;20419;-64
2023/06/13 05:45:59;;;;;;;8.88;5.32;;;;;;;;;;5054761;28;20432;-64
2023/06/13 05:48:28;;;;;;;6.93;5.22;;;;;;;;;;5067667;28;20419;-65
2023/06/13 05:50:55;;;;;;;7.85;5.50;;;;;;;;;;5063181;28;20504;-64
2023/06/13 05:53:23;;;;;;;10.38;5.38;;;;;;;;;;5072053;28;20438;-64
2023/06/13 05:55:50;;;;;;;6.97;5.40;;;;;;;;;;5066992;28;20447;-65
2023/06/13 05:58:17;;;;;;;7.28;5.22;;;;;;;;;;5063042;28;20420;-64
2023/06/13 06:00:45;;;;;;;9.15;5.18;;;;;;;;;;5064152;28;20465;-64
2023/06/13 06:03:13;;;;;;;9.95;5.50;;;;;;;;;;5062633;28;20421;-65
2023/06/13 06:05:40;;;;;;;8.00;5.40;;;;;;;;;;5062417;28;20421;-64
2023/06/13 06:08:07;;;;;;;7.47;5.30;;;;;;;;;;5068142;28;20473;-65
2023/06/13 06:10:34;;;;;;;7.88;5.18;;;;;;;;;;5063079;28;20823;-65
2023/06/13 06:13:01;;;;;;;9.02;5.53;;;;;;;;;;5063579;28;20477;-65
2023/06/13 06:15:28;;;;;;;8.55;5.93;;;;;;;;;;5061443;28;20447;-65
2023/06/13 06:17:57;;;;;;;8.27;5.75;;;;;;;;;;5065126;28;20420;-65
2023/06/13 06:20:24;;;;;;;7.47;5.33;;;;;;;;;;5061181;28;20448;-65
2023/06/13 06:22:51;;;;;;;11.82;5.78;;;;;;;;;;5067445;28;20488;-65
2023/06/13 06:25:20;;;;;;;7.63;5.35;;;;;;;;;;5059234;28;20421;-65
2023/06/13 06:27:47;;;;;;;8.13;5.28;;;;;;;;;;5062206;28;20729;-65
2023/06/13 06:30:15;;;;;;;6.20;5.00;;;;;;;;;;5062527;28;20831;-65
2023/06/13 06:32:42;;;;;;;9.75;5.32;;;;;;;;;;5060432;28;20968;-65
2023/06/13 06:35:11;;;;;;;10.32;5.05;;;;;;;;;;5060821;28;20405;-65
2023/06/13 06:37:38;;;;;;;7.47;5.03;;;;;;;;;;5067986;28;20453;-65
2023/06/13 06:40:06;;;;;;;8.80;5.20;;;;;;;;;;5062541;28;20417;-65
2023/06/13 06:42:33;;;;;;;8.10;5.20;;;;;;;;;;5059654;28;20417;-65
2023/06/13 06:45:00;;;;;;;12.63;4.85;;;;;;;;;;5061495;28;20839;-65
2023/06/13 06:47:27;;;;;;;8.45;5.30;;;;;;;;;;5062402;28;20415;-65
2023/06/13 06:49:55;;;;;;;8.60;5.00;;;;;;;;;;5062037;28;20450;-66
2023/06/13 06:52:23;;;;;;;10.38;5.15;;;;;;;;;;5061261;28;20880;-65
2023/06/13 06:54:50;;;;;;;10.25;5.03;;;;;;;;;;5059573;28;20406;-65
2023/06/13 06:57:17;;;;;;;10.38;4.68;;;;;;;;;;5061232;28;20415;-65
2023/06/13 06:59:44;;;;;;;10.27;5.47;;;;;;;;;;5061973;28;20472;-65
2023/06/13 07:02:11;;;;;;;7.90;4.97;;;;;;;;;;5060714;28;20785;-65
2023/06/13 07:04:38;;;;;;;8.65;5.28;;;;;;;;;;5069902;28;20447;-65
2023/06/13 07:07:05;;;;;;;7.47;4.75;;;;;;;;;;5074093;28;20409;-64
2023/06/13 07:09:33;;;;;;;11.10;5.25;;;;;;;;;;5072868;28;20413;-65
2023/06/13 07:12:00;;;;;;;12.63;5.25;;;;;;;;;;5070252;28;20763;-65
2023/06/13 07:14:28;;;;;;;9.15;5.20;;;;;;;;;;5071892;28;20441;-65
2023/06/13 07:16:55;;;;;;;9.32;4.97;;;;;;;;;;5075699;28;20797;-65
2023/06/13 07:19:23;;;;;;;8.88;5.05;;;;;;;;;;5067569;28;20403;-64
2023/06/13 07:21:50;;;;;;;6.22;4.93;;;;;;;;;;5070300;28;20416;-65
2023/06/13 07:24:17;;;;;;;7.40;4.90;;;;;;;;;;5070579;28;20409;-65
2023/06/13 07:26:45;;;;;;;7.03;4.97;;;;;;;;;;5072113;28;20485;-64
2023/06/13 07:29:12;;;;;;;7.53;4.82;;;;;;;;;;5072081;28;20481;-65
2023/06/13 07:31:39;;;;;;;7.32;4.88;;;;;;;;;;5068827;28;20483;-64
2023/06/13 07:34:06;;;;;;;7.10;4.70;;;;;;;;;;5069122;28;20755;-65
2023/06/13 07:36:33;;;;;;;7.07;4.80;;;;;;;;;;5072525;28;20449;-65
2023/06/13 07:39:09;;;;;;;6.35;4.80;;;;;;;;;;5073543;28;20415;-65
2023/06/13 07:41:36;;;;;;;7.80;4.90;;;;;;;;;;5071842;28;20444;-64
2023/06/13 07:44:05;;;;;;;6.15;4.80;;;;;;;;;;5071696;28;20491;-65
2023/06/13 07:46:32;;;;;;;7.43;4.90;;;;;;;;;;5068405;28;20917;-65
2023/06/13 07:48:59;;;;;;;7.95;4.60;;;;;;;;;;5071788;28;20470;-65
2023/06/13 07:51:27;;;;;;;6.05;4.43;;;;;;;;;;5071693;28;20431;-64
2023/06/13 07:53:54;;;;;;;7.15;4.80;;;;;;;;;;5066081;28;20451;-65
2023/06/13 07:56:21;;;;;;;8.18;5.05;;;;;;;;;;5073271;28;20505;-65
2023/06/13 07:58:48;;;;;;;6.43;4.78;;;;;;;;;;5070153;28;20423;-64
2023/06/13 08:01:16;;;;;;;7.00;4.57;;;;;;;;;;5068405;28;20411;-65
2023/06/13 08:03:45;;;;;;;7.80;4.60;;;;;;;;;;5067835;28;20420;-65
2023/06/13 08:06:12;;;;;;;5.07;4.40;;;;;;;;;;5070269;28;20423;-65
2023/06/13 08:08:39;;;;;;;8.32;4.70;;;;;;;;;;5069394;28;20726;-65
2023/06/13 08:11:06;;;;;;;6.05;4.30;;;;;;;;;;5066505;28;20452;-66
2023/06/13 08:13:33;;;;;;;9.43;4.88;;;;;;;;;;5060025;28;20417;-65
2023/06/13 08:16:02;;;;;;;10.57;4.97;;;;;;;;;;5062844;28;20409;-65
2023/06/13 08:18:31;;;;;;;6.70;4.60;;;;;;;;;;5063400;28;20417;-65
2023/06/13 08:20:58;;;;;;;7.45;4.68;;;;;;;;;;5064641;28;20908;-65
2023/06/13 08:23:25;;;;;;;8.43;4.82;;;;;;;;;;5064109;28;20462;-65
2023/06/13 08:25:52;;;;;;;6.35;4.50;;;;;;;;;;5062390;28;20421;-65
2023/06/13 08:28:19;;;;;;;7.93;4.82;;;;;;;;;;5064324;28;20830;-65
2023/06/13 08:30:46;;;;;;;8.00;4.70;;;;;;;;;;5064371;28;20423;-65
2023/06/13 08:33:14;;;;;;;8.48;4.78;;;;;;;;;;5062239;28;20927;-65
2023/06/13 08:35:42;;;;;;;8.38;4.68;;;;;;;;;;5067165;28;20426;-65
2023/06/13 08:38:11;;;;;;;10.07;5.05;;;;;;;;;;5075272;28;20415;-64
2023/06/13 08:40:39;;;;;;;5.17;4.67;;;;;;;;;;5073588;28;20566;-65
2023/06/13 08:43:06;;;;;;;8.70;4.80;;;;;;;;;;5071349;28;20427;-65
2023/06/13 08:45:33;;;;;;;6.30;4.65;;;;;;;;;;5066768;28;20482;-65
2023/06/13 08:48:00;;;;;;;6.00;4.90;;;;;;;;;;5072192;28;20425;-65
2023/06/13 08:50:27;;;;;;;6.82;4.80;;;;;;;;;;5067604;28;20415;-65
2023/06/13 08:52:56;;;;;;;7.95;4.47;;;;;;;;;;5071331;28;20420;-65
2023/06/13 08:55:23;;;;;;;7.35;4.90;;;;;;;;;;5072119;28;20455;-65
2023/06/13 08:57:53;;;;;;;5.53;4.65;;;;;;;;;;5074660;28;20500;-64
2023/06/13 09:00:20;;;;;;;8.23;4.85;;;;;;;;;;5075467;28;20494;-64
2023/06/13 09:02:48;;;;;;;6.28;4.47;;;;;;;;;;5069469;28;20405;-65
2023/06/13 09:05:17;;;;;;;5.80;4.43;;;;;;;;;;5064393;28;20413;-65
2023/06/13 09:07:45;;;;;;;5.40;4.30;;;;;;;;;;5071852;28;20912;-65
2023/06/13 09:10:14;;;;;;;6.15;4.60;;;;;;;;;;5066470;28;20477;-65
2023/06/13 09:12:42;;;;;;;6.75;4.65;;;;;;;;;;5057338;28;20405;-64
2023/06/13 09:15:10;;;;;;;6.95;4.65;;;;;;;;;;5058416;28;20410;-65
2023/06/13 09:17:37;;;;;;;7.30;4.70;;;;;;;;;;5058021;28;20769;-65
2023/06/13 09:20:05;;;;;;;6.47;4.45;;;;;;;;;;5057380;28;20419;-64
2023/06/13 09:22:33;;;;;;;7.95;4.88;;;;;;;;;;5059265;28;20445;-65
2023/06/13 09:25:01;;;;;;;5.53;4.97;;;;;;;;;;5067356;28;20414;-64
2023/06/13 09:27:29;;;;;;;7.18;4.80;;;;;;;;;;5068605;28;20998;-65
2023/06/13 09:29:59;;;;;;;6.15;5.10;;;;;;;;;;5066716;28;20418;-65
2023/06/13 09:32:26;;;;;;;34.80;22.07;;;;;;;;;;5066657;28;20413;-65
2023/06/13 09:34:54;;;;;;;5.28;4.35;;;;;;;;;;5067883;28;20411;-65
2023/06/13 09:37:24;;;;;;;6.80;4.85;;;;;;;;;;5072399;28;20412;-64
2023/06/13 09:39:52;;;;;;;7.07;4.88;;;;;;;;;;5065994;28;20417;-65
2023/06/13 09:42:21;;;;;;;5.20;4.68;;;;;;;;;;5065951;28;20789;-65
2023/06/13 09:44:50;;;;;;;6.82;4.60;;;;;;;;;;5069122;28;20486;-65
2023/06/13 09:47:22;;;;;;;6.55;4.72;;;;;;;;;;5068066;28;20459;-65
2023/06/13 09:49:52;;;;;;;6.90;4.18;;;;;;;;;;5058268;28;20440;-65
2023/06/13 09:52:23;;;;;;;7.93;4.70;;;;;;;;;;5058701;28;20452;-65
2023/06/13 09:54:50;;;;;;;5.93;4.53;;;;;;;;;;5069277;28;20473;-65
2023/06/13 09:57:17;;;;;;;6.30;4.60;;;;;;;;;;5072647;28;20396;-64
2023/06/13 09:59:47;;;;;;;10.05;5.07;;;;;;;;;;5065975;28;20425;-65
2023/06/13 10:02:15;;;;;;;6.68;5.10;;;;;;;;;;5066397;28;20415;-65
2023/06/13 10:04:42;;;;;;;7.57;4.65;;;;;;;;;;5068543;28;20465;-65
2023/06/13 10:07:10;;;;;;;5.35;4.70;;;;;;;;;;5073130;28;20435;-65
2023/06/13 10:09:37;;;;;;;7.10;4.80;;;;;;;;;;5076388;28;20422;-65
2023/06/13 10:12:05;;;;;;;7.45;4.70;;;;;;;;;;5068059;28;20886;-67
2023/06/13 10:14:34;;;;;;;6.93;4.38;;;;;;;;;;5068681;28;20417;-65
2023/06/13 10:17:04;;;;;;;5.35;4.45;;;;;;;;;;5073170;28;20405;-65
2023/06/13 10:19:35;;;;;;;6.70;4.93;;;;;;;;;;5072270;28;20888;-65
2023/06/13 10:22:02;;;;;;;6.60;4.90;;;;;;;;;;5069076;28;20412;-65
2023/06/13 10:24:29;;;;;;;7.25;4.57;;;;;;;;;;5068596;28;20409;-65
2023/06/13 10:26:58;;;;;;;5.97;4.70;;;;;;;;;;5071130;28;20427;-65
2023/06/13 10:29:45;;;;;;;7.13;4.72;;;;;;;;;;5070422;28;20896;-65
2023/06/13 10:32:21;;;;;;;6.33;5.20;;;;;;;;;;5070344;28;20428;-65
2023/06/13 10:35:08;;;;;;;6.00;4.63;;;;;;;;;;5070594;28;20428;-65
2023/06/13 10:37:44;;;;;;;5.88;4.97;;;;;;;;;;5074603;28;20408;-65
2023/06/13 10:40:22;;;;;;;5.93;4.80;;;;;;;;;;5074492;28;20414;-65
2023/06/13 10:42:52;;;;;;;5.30;4.53;;;;;;;;;;5066628;28;20409;-66
2023/06/13 10:45:21;;;;;;;8.30;4.78;;;;;;;;;;5066695;28;20475;-65
2023/06/13 10:47:48;;;;;;;8.85;4.97;;;;;;;;;;5065649;28;20464;-65
2023/06/13 10:50:17;;;;;;;7.40;5.13;;;;;;;;;;5066330;28;20447;-65
2023/06/13 10:52:45;;;;;;;6.45;4.90;;;;;;;;;;5069382;28;20446;-65
2023/06/13 10:55:14;;;;;;;5.93;4.73;;;;;;;;;;5068330;28;20444;-64
2023/06/13 10:57:48;;;;;;;7.38;4.97;;;;;;;;;;5066302;28;20408;-64
2023/06/13 11:00:24;;;;;;;6.40;4.93;;;;;;;;;;5065968;28;20414;-64
2023/06/13 11:02:51;;;;;;;6.80;5.03;;;;;;;;;;5058303;28;20432;-63
2023/06/13 11:05:19;;;;;;;7.13;5.05;;;;;;;;;;5058303;28;20409;-65
2023/06/13 11:07:48;;;;;;;7.55;5.10;;;;;;;;;;5074259;28;20466;-65
2023/06/13 11:10:16;;;;;;;6.70;4.78;;;;;;;;;;5058904;28;20455;-65
2023/06/13 11:12:43;;;;;;;8.20;5.18;;;;;;;;;;5058242;28;20960;-65
2023/06/13 11:15:20;;;;;;;8.05;4.80;;;;;;;;;;5058561;28;20487;-65
2023/06/13 11:18:02;;;;;;;8.38;5.10;;;;;;;;;;5067470;28;20492;-64
2023/06/13 11:20:31;;;;;;;7.05;5.13;;;;;;;;;;5055076;28;20470;-65
2023/06/13 11:22:58;;;;;;;6.45;4.70;;;;;;;;;;5054829;28;20811;-65
2023/06/13 11:25:26;;;;;;;6.18;4.85;;;;;;;;;;5069644;28;20461;-65
2023/06/13 11:27:53;;;;;;;5.68;4.75;;;;;;;;;;5067413;28;20839;-65
2023/06/13 11:30:20;;;;;;;6.32;4.88;;;;;;;;;;5068116;28;20900;-65
2023/06/13 11:32:47;;;;;;;7.63;4.85;;;;;;;;;;5066490;28;20445;-67
2023/06/13 11:35:17;;;;;;;6.40;4.68;;;;;;;;;;5059978;28;20839;-64
2023/06/13 11:37:48;;;;;;;5.85;4.10;;;;;;;;;;5063730;28;20415;-66
2023/06/13 11:40:20;;;;;;;8.88;5.13;;;;;;;;;;5064149;28;20445;-65
2023/06/13 11:42:47;;;;;;;8.35;4.60;;;;;;;;;;5060316;28;20413;-65
2023/06/13 11:45:14;;;;;;;8.00;4.95;;;;;;;;;;5057413;28;20978;-63
2023/06/13 11:47:41;;;;;;;8.20;4.90;;;;;;;;;;5066000;28;20431;-64
2023/06/13 11:50:08;;;;;;;8.60;4.97;;;;;;;;;;5064647;28;20420;-66
2023/06/13 11:52:35;;;;;;;7.70;4.90;;;;;;;;;;5069841;28;20469;-64
2023/06/13 11:55:16;;;;;;;6.10;5.43;;;;;;;;;;5067254;28;20945;-65
2023/06/13 11:57:48;;;;;;;8.00;5.05;;;;;;;;;;5063839;28;20405;-67
2023/06/13 12:00:15;;;;;;;6.13;5.10;;;;;;;;;;5064312;28;20525;-67
2023/06/13 12:02:43;;;;;;;6.82;4.95;;;;;;;;;;5064700;28;20416;-66
2023/06/13 12:05:10;;;;;;;5.65;4.88;;;;;;;;;;5064837;28;20477;-66
2023/06/13 12:07:39;;;;;;;5.95;5.15;;;;;;;;;;5066327;28;20477;-66
2023/06/13 12:10:08;;;;;;;8.00;5.10;;;;;;;;;;5065135;28;20425;-67
2023/06/13 12:12:35;;;;;;;6.22;4.97;;;;;;;;;;5053773;28;20500;-67
2023/06/13 12:15:03;;;;;;;7.93;4.97;;;;;;;;;;5053351;28;21000;-67
2023/06/13 12:17:30;;;;;;;8.93;5.13;;;;;;;;;;5054721;28;20409;-67
2023/06/13 12:20:07;;;;;;;6.72;4.65;;;;;;;;;;5054000;28;20413;-67
2023/06/13 12:22:34;;;;;;;5.57;4.78;;;;;;;;;;5063445;28;20834;-66
2023/06/13 12:25:01;;;;;;;7.22;4.68;;;;;;;;;;5066005;28;20825;-67
2023/06/13 12:27:30;;;;;;;6.40;4.80;;;;;;;;;;5064666;28;20519;-67
2023/06/13 12:29:57;;;;;;;7.47;4.70;;;;;;;;;;5063441;28;20808;-67
2023/06/13 12:32:25;;;;;;;7.80;4.80;;;;;;;;;;5064958;28;20407;-67
2023/06/13 12:34:52;;;;;;;8.55;4.95;;;;;;;;;;5060658;28;20415;-67
2023/06/13 12:37:19;;;;;;;9.10;5.33;;;;;;;;;;5067503;28;20502;-67
2023/06/13 12:40:03;;;;;;;8.10;4.63;;;;;;;;;;5065687;28;20425;-67
2023/06/13 12:42:31;;;;;;;7.70;4.50;;;;;;;;;;5062059;28;20418;-67
2023/06/13 12:44:58;;;;;;;6.10;4.80;;;;;;;;;;5068278;28;20417;-66
2023/06/13 12:47:26;;;;;;;5.65;4.50;;;;;;;;;;5065050;28;20484;-67
2023/06/13 12:49:53;;;;;;;8.35;4.65;;;;;;;;;;5063126;28;20507;-66
2023/06/13 12:52:20;;;;;;;5.72;4.32;;;;;;;;;;5064827;28;20536;-66
2023/06/13 12:54:47;;;;;;;7.00;4.70;;;;;;;;;;5065804;28;20536;-67
2023/06/13 12:57:17;;;;;;;6.95;4.57;;;;;;;;;;5068593;28;20411;-64
2023/06/13 12:59:46;;;;;;;7.72;4.50;;;;;;;;;;5066484;28;20411;-63
2023/06/13 13:02:14;;;;;;;9.10;4.63;;;;;;;;;;5063689;28;20415;-65
2023/06/13 13:04:42;;;;;;;7.90;4.70;;;;;;;;;;5061282;28;20409;-65
2023/06/13 13:07:11;;;;;;;7.78;4.70;;;;;;;;;;5065033;28;20427;-67
2023/06/13 13:09:39;;;;;;;8.00;4.57;;;;;;;;;;5065009;28;20446;-67
2023/06/13 13:12:07;;;;;;;7.25;4.65;;;;;;;;;;5063185;28;20422;-67
2023/06/13 13:14:35;;;;;;;5.95;4.40;;;;;;;;;;5060851;28;20473;-67
2023/06/13 13:17:04;;;;;;;6.57;4.78;;;;;;;;;;5069244;28;20461;-64
2023/06/13 13:19:31;;;;;;;7.20;4.45;;;;;;;;;;5068270;28;20900;-65
2023/06/13 13:21:58;;;;;;;5.47;4.30;;;;;;;;;;5061794;28;20443;-66
2023/06/13 13:24:26;;;;;;;8.55;4.85;;;;;;;;;;5064732;28;20473;-66
2023/06/13 13:26:54;;;;;;;5.70;4.60;;;;;;;;;;5061304;28;20425;-65
2023/06/13 13:29:21;;;;;;;7.90;4.72;;;;;;;;;;5061362;28;20425;-64
2023/06/13 13:31:49;;;;;;;6.53;4.25;;;;;;;;;;5063102;28;20411;-65
2023/06/13 13:34:17;;;;;;;6.20;4.50;;;;;;;;;;5062035;28;20440;-65
2023/06/13 13:36:44;;;;;;;6.30;4.50;;;;;;;;;;5065238;28;20489;-65
2023/06/13 13:39:12;;;;;;;5.38;4.55;;;;;;;;;;5067490;28;20451;-65
2023/06/13 13:41:39;;;;;;;5.90;4.60;;;;;;;;;;5060404;28;20419;-65
2023/06/13 13:44:07;;;;;;;7.30;4.40;;;;;;;;;;5064594;28;20414;-66
2023/06/13 13:46:35;;;;;;;6.60;4.18;;;;;;;;;;5061461;28;20479;-65
2023/06/13 13:49:02;;;;;;;6.13;4.87;;;;;;;;;;5063172;28;20898;-66
2023/06/13 13:51:30;;;;;;;6.72;4.43;;;;;;;;;;5063318;28;20427;-66
2023/06/13 13:53:57;;;;;;;5.60;4.07;;;;;;;;;;5065310;28;20416;-66
2023/06/13 13:56:24;;;;;;;7.93;4.50;;;;;;;;;;5066889;28;20413;-66
2023/06/13 13:58:51;;;;;;;7.63;4.60;;;;;;;;;;5060527;28;20404;-67
2023/06/13 14:01:19;;;;;;;8.65;4.65;;;;;;;;;;5062443;28;20407;-67
2023/06/13 14:03:47;;;;;;;6.55;4.60;;;;;;;;;;5063864;28;20882;-66
2023/06/13 14:06:14;;;;;;;6.10;4.32;;;;;;;;;;5063491;28;20465;-66
2023/06/13 14:08:43;;;;;;;6.15;4.38;;;;;;;;;;5064450;28;20447;-66
2023/06/13 14:11:10;;;;;;;7.80;4.57;;;;;;;;;;5062484;28;20438;-66
2023/06/13 14:13:37;;;;;;;6.35;4.30;;;;;;;;;;5059362;28;20410;-66
2023/06/13 14:16:04;;;;;;;6.50;4.88;;;;;;;;;;5061679;28;20547;-66
2023/06/13 14:18:31;;;;;;;4.47;4.07;;;;;;;;;;5061674;28;20784;-66
2023/06/13 14:20:58;;;;;;;6.38;4.53;;;;;;;;;;5063575;28;20425;-64
2023/06/13 14:23:25;;;;;;;6.68;4.72;;;;;;;;;;5059523;28;20483;-67
2023/06/13 14:25:53;;;;;;;6.50;4.40;;;;;;;;;;5066575;28;20419;-68
2023/06/13 14:28:21;;;;;;;8.13;4.40;;;;;;;;;;5064680;28;20432;-68
2023/06/13 14:30:48;;;;;;;5.82;4.20;;;;;;;;;;5060394;28;20429;-67
2023/06/13 14:33:16;;;;;;;8.63;4.47;;;;;;;;;;5060403;28;20439;-65
2023/06/13 14:35:43;;;;;;;5.30;4.50;;;;;;;;;;5062958;28;20466;-65
2023/06/13 14:38:10;;;;;;;9.18;4.60;;;;;;;;;;5064495;28;20466;-65
2023/06/13 14:40:37;;;;;;;6.05;4.45;;;;;;;;;;5059393;28;20409;-65
2023/06/13 14:43:06;;;;;;;5.80;4.72;;;;;;;;;;5061018;28;20429;-65
2023/06/13 14:45:33;;;;;;;7.75;4.90;;;;;;;;;;5060955;28;20849;-66
2023/06/13 14:48:00;;;;;;;6.25;4.50;;;;;;;;;;5064900;28;20454;-65